KWYS Airport Information

Runway Information
Runway 01 Length 8399 ft width 150 ft
Elevation 6644 ft Threshold 0 ft Heading 26
Runway 19 Length 8399 ft Width 150 ft
Elevation 6629 ft Threshold 0 ft Heading 206
Airport Frequencies
Type CNTR Name SALT LAKE Frequency 132.4 MHZ
Type RDO Name GREAT FALL Frequency 119.4 MHZ
Type UNIC Name CTAF/UNICO Frequency 123 MHZ
Airport Navaids
Type NDB Name Targy Frequency 415 KHZ
Airport Weather Information & NOTAM
ADDS - METARS form results

(0150 UTC 19 January 2018)
 
METAR text: KWYS 190135Z AUTO 22017KT 10SM SCT020 SCT027 SCT036 02/M02 A2987 RMK AO2
Conditions at: KWYS (WEST YELLOWSTONE, MT, US) observed 0135 UTC 19 January 2018
Temperature: 2.0°C (36°F)
Dewpoint: -2.0°C (28°F) [RH = 75%]
Pressure (altimeter): 29.87 inches Hg (1011.6 mb)
Winds: from the SW (220 degrees) at 20 MPH (17 knots; 8.8 m/s)
Visibility: 10 or more miles (16+ km)
Ceiling: at least 12,000 feet AGL
Clouds: scattered clouds at 2000 feet AGL
scattered clouds at 2700 feet AGL
scattered clouds at 3600 feet AGL
Weather: automated observation with no human augmentation;
there may or may not be significant weather present at this time

METAR text: KWYS 190115Z AUTO 23012KT 10SM CLR 02/M02 A2988 RMK AO2
Conditions at: KWYS (WEST YELLOWSTONE, MT, US) observed 0115 UTC 19 January 2018
Temperature: 2.0°C (36°F)
Dewpoint: -2.0°C (28°F) [RH = 75%]
Pressure (altimeter): 29.88 inches Hg (1011.9 mb)
Winds: from the SW (230 degrees) at 14 MPH (12 knots; 6.2 m/s)
Visibility: 10 or more miles (16+ km)
Ceiling: at least 12,000 feet AGL
Clouds: sky clear below 12,000 feet AGL
Weather: automated observation with no human augmentation;
there may or may not be significant weather present at this time

METAR text: KWYS 190055Z AUTO 22008G14KT 10SM FEW035 FEW050 02/M02 A2990 RMK AO2
Conditions at: KWYS (WEST YELLOWSTONE, MT, US) observed 0055 UTC 19 January 2018
Temperature: 2.0°C (36°F)
Dewpoint: -2.0°C (28°F) [RH = 75%]
Pressure (altimeter): 29.90 inches Hg (1012.6 mb)
Winds: from the SW (220 degrees) at 9 MPH (8 knots; 4.2 m/s)
gusting to 16 MPH (14 knots; 7.3 m/s)
Visibility: 10 or more miles (16+ km)
Ceiling: at least 12,000 feet AGL
Clouds: few clouds at 3500 feet AGL
few clouds at 5000 feet AGL
Weather: automated observation with no human augmentation;
there may or may not be significant weather present at this time